createdAt,value
2022-08-17T00:01:51.560Z,101132.09
2022-08-17T00:04:19.750Z,101128.78
2022-08-17T00:06:49.098Z,101129.75
2022-08-17T00:09:18.851Z,101130.06
2022-08-17T00:12:44.420Z,101116.13
2022-08-17T00:14:36.046Z,101108.81
2022-08-17T00:17:04.654Z,101108.31
2022-08-17T00:19:32.620Z,101111.81
2022-08-17T00:22:31.395Z,101115.59
2022-08-17T00:24:49.387Z,101117.56
2022-08-17T00:27:15.841Z,101114.06
2022-08-17T00:29:42.320Z,101103.63
2022-08-17T00:33:12.651Z,101099.28
2022-08-17T00:34:55.399Z,101100.44
2022-08-17T00:37:21.869Z,101104.38
2022-08-17T00:39:48.394Z,101100.22
2022-08-17T00:42:18.440Z,101100.66
2022-08-17T00:44:45.707Z,101096.19
2022-08-17T00:47:12.177Z,101091.69
2022-08-17T00:49:38.651Z,101090.72
2022-08-17T00:52:15.341Z,101092.41
2022-08-17T00:54:44.852Z,101089.91
2022-08-17T00:57:21.108Z,101085.44
2022-08-17T01:00:02.449Z,101088.09
2022-08-17T01:02:34.978Z,101082.78
2022-08-17T01:05:16.351Z,101082.78
2022-08-17T01:07:47.251Z,101077.78
2022-08-17T01:10:58.843Z,101074.28
2022-08-17T01:13:02.630Z,101068.16
2022-08-17T01:15:31.222Z,101067.47
2022-08-17T01:17:57.828Z,101071.94
2022-08-17T01:20:24.325Z,101067.94
2022-08-17T01:22:50.969Z,101062.09
2022-08-17T01:25:18.576Z,101062.53
2022-08-17T01:27:45.036Z,101057.38
2022-08-17T01:30:58.401Z,101058.34
2022-08-17T01:32:59.235Z,101054.88
2022-08-17T01:35:25.717Z,101060.03
2022-08-17T01:37:52.500Z,101061.69
2022-08-17T01:40:39.111Z,101057.22
2022-08-17T01:43:14.435Z,101060.41
2022-08-17T01:45:45.387Z,101057.47
2022-08-17T01:48:13.337Z,101054.66
2022-08-17T01:50:42.336Z,101058.28
2022-08-17T01:53:18.199Z,101053.28
2022-08-17T01:55:51.447Z,101054.28
2022-08-17T01:58:19.173Z,101059.03
2022-08-17T02:01:01.267Z,101054.03
2022-08-17T02:03:28.928Z,101061.47
2022-08-17T02:05:55.438Z,101057.00
2022-08-17T02:08:39.164Z,101051.69
2022-08-17T02:11:17.244Z,101056.88
2022-08-17T02:13:45.540Z,101055.03
2022-08-17T02:16:13.038Z,101062.81
2022-08-17T02:18:39.663Z,101062.69
2022-08-17T02:21:07.002Z,101069.13
2022-08-17T02:23:38.980Z,101078.75
2022-08-17T02:26:05.655Z,101091.91
2022-08-17T02:28:32.538Z,101098.34
2022-08-17T02:31:09.050Z,101100.06
2022-08-17T02:33:42.070Z,101103.88
2022-08-17T02:36:11.811Z,101111.28
2022-08-17T02:38:39.770Z,101114.38
2022-08-17T02:41:06.553Z,101113.81
2022-08-17T02:43:33.085Z,101117.38
2022-08-17T02:48:28.146Z,101116.94
2022-08-17T02:50:57.986Z,101119.41
2022-08-17T02:53:24.460Z,101112.63
2022-08-17T02:55:52.695Z,101106.31
2022-08-17T02:58:34.389Z,101095.56
2022-08-17T03:01:04.785Z,101096.44
2022-08-17T03:03:31.487Z,101095.28
2022-08-17T03:05:57.971Z,101095.00
2022-08-17T03:08:25.497Z,101094.31
2022-08-17T03:10:52.230Z,101085.38
2022-08-17T03:13:18.937Z,101080.09
2022-08-17T03:15:47.182Z,101087.75
2022-08-17T03:18:25.026Z,101079.91
2022-08-17T03:20:57.534Z,101074.63
2022-08-17T03:23:25.543Z,101062.38
2022-08-17T03:25:53.519Z,101067.66
2022-08-17T03:28:21.133Z,101061.38
2022-08-17T03:30:47.664Z,101070.84
2022-08-17T03:33:14.172Z,101073.50
2022-08-17T03:35:41.800Z,101074.19
2022-08-17T03:38:10.507Z,101071.69
2022-08-17T03:40:57.891Z,101067.19
2022-08-17T03:43:25.815Z,101070.72
2022-08-17T03:46:20.735Z,101071.69
2022-08-17T03:49:15.617Z,101085.38
2022-08-17T03:52:00.490Z,101095.28
2022-08-17T03:54:45.345Z,101107.03
2022-08-17T03:57:12.600Z,101112.00
2022-08-17T03:59:41.122Z,101114.13
2022-08-17T04:02:20.725Z,101119.16
2022-08-17T04:04:50.927Z,101117.66
2022-08-17T04:07:19.522Z,101108.03
2022-08-17T04:09:46.111Z,101117.13
2022-08-17T04:12:16.094Z,101121.84
2022-08-17T04:14:53.365Z,101110.59
2022-08-17T04:17:26.847Z,101112.69
2022-08-17T04:22:31.938Z,101117.44
2022-08-17T04:25:13.651Z,101114.78
2022-08-17T04:27:40.130Z,101114.63
2022-08-17T04:30:07.465Z,101126.06
2022-08-17T04:33:19.221Z,101126.34
2022-08-17T04:35:47.135Z,101133.34
2022-08-17T04:38:17.680Z,101130.16
2022-08-17T04:41:03.704Z,101122.22
2022-08-17T04:43:33.151Z,101121.38
2022-08-17T04:46:05.919Z,101118.75
2022-08-17T04:48:38.655Z,101119.69
2022-08-17T04:51:13.203Z,101115.53
2022-08-17T04:53:42.769Z,101111.19
2022-08-17T04:56:11.675Z,101109.38
2022-08-17T04:58:44.655Z,101117.34
2022-08-17T05:01:11.389Z,101114.00
2022-08-17T05:03:38.414Z,101105.53
2022-08-17T05:06:05.388Z,101118.47
2022-08-17T05:08:31.861Z,101111.38
2022-08-17T05:10:58.395Z,101114.84
2022-08-17T05:13:27.276Z,101118.31
2022-08-17T05:15:57.075Z,101121.41
2022-08-17T05:18:24.748Z,101125.88
2022-08-17T05:20:52.459Z,101117.06
2022-08-17T05:23:22.152Z,101110.09
2022-08-17T05:25:51.742Z,101117.94
2022-08-17T05:28:27.330Z,101107.19
2022-08-17T05:30:56.536Z,101112.19
2022-08-17T05:33:26.685Z,101107.88
2022-08-17T05:35:55.391Z,101107.47
2022-08-17T05:38:24.353Z,101115.41
2022-08-17T05:40:51.374Z,101111.78
2022-08-17T05:43:21.297Z,101113.59
2022-08-17T05:46:23.315Z,101115.41
2022-08-17T05:48:53.568Z,101110.28
2022-08-17T05:51:40.238Z,101108.72
2022-08-17T05:54:20.154Z,101111.66
2022-08-17T05:56:54.546Z,101107.47
2022-08-17T05:59:35.528Z,101108.47
2022-08-17T06:02:47.641Z,101101.63
2022-08-17T06:05:37.903Z,101095.34
2022-08-17T06:08:19.381Z,101086.47
2022-08-17T06:10:53.188Z,101088.94
2022-08-17T06:13:54.315Z,101093.13
2022-08-17T06:16:32.994Z,101097.16
2022-08-17T06:19:11.058Z,101103.69
2022-08-17T06:21:42.637Z,101100.06
2022-08-17T06:24:34.215Z,101112.59
2022-08-17T06:27:09.688Z,101116.63
2022-08-17T06:29:50.637Z,101105.88
2022-08-17T06:32:17.286Z,101105.75
2022-08-17T06:34:45.821Z,101118.72
2022-08-17T06:37:27.297Z,101133.47
2022-08-17T06:39:59.800Z,101135.69
2022-08-17T06:43:06.042Z,101136.09
2022-08-17T06:46:01.699Z,101147.22
2022-08-17T06:48:46.937Z,101144.56
2022-08-17T06:51:23.838Z,101146.09
2022-08-17T06:54:02.696Z,101152.09
2022-08-17T06:56:54.144Z,101151.81
2022-08-17T06:59:54.912Z,101144.69
2022-08-17T07:02:53.223Z,101154.03
2022-08-17T07:05:23.628Z,101151.22
2022-08-17T07:10:20.645Z,101143.81
2022-08-17T07:12:50.096Z,101139.38
2022-08-17T07:15:23.234Z,101140.31
2022-08-17T07:17:49.911Z,101150.09
2022-08-17T07:20:23.069Z,101153.44
2022-08-17T07:23:04.584Z,101155.94
2022-08-17T07:25:31.119Z,101158.16
2022-08-17T07:28:02.377Z,101162.59
2022-08-17T07:30:47.016Z,101167.91
2022-08-17T07:33:20.044Z,101168.06
2022-08-17T07:35:48.381Z,101166.13
2022-08-17T07:38:25.416Z,101171.72
2022-08-17T07:41:06.101Z,101167.53
2022-08-17T07:43:41.810Z,101162.69
2022-08-17T07:46:30.173Z,101162.69
2022-08-17T07:49:03.116Z,101161.91
2022-08-17T07:51:31.305Z,101159.94
2022-08-17T07:54:22.520Z,101159.41
2022-08-17T07:56:53.565Z,101171.69
2022-08-17T07:59:28.043Z,101166.78
2022-08-17T08:01:58.880Z,101168.34
2022-08-17T08:07:17.657Z,101173.72
2022-08-17T08:09:59.357Z,101171.78
2022-08-17T08:12:34.004Z,101177.63
2022-08-17T08:15:34.209Z,101182.94
2022-08-17T08:18:03.916Z,101186.13
2022-08-17T08:20:51.896Z,101188.66
2022-08-17T08:23:34.490Z,101190.16
2022-08-17T08:26:04.150Z,101195.88
2022-08-17T08:28:35.902Z,101195.59
2022-08-17T08:31:25.387Z,101201.28
2022-08-17T08:34:53.395Z,101204.63
2022-08-17T08:37:25.148Z,101214.38
2022-08-17T08:40:11.008Z,101218.81
2022-08-17T08:43:10.094Z,101219.75
2022-08-17T08:45:50.653Z,101230.34
2022-08-17T08:48:53.808Z,101237.72
2022-08-17T08:51:23.717Z,101233.22
2022-08-17T08:54:03.304Z,101241.03
2022-08-17T08:57:11.547Z,101222.88
2022-08-17T08:59:42.162Z,101212.31
2022-08-17T09:02:29.379Z,101210.41
2022-08-17T09:05:15.537Z,101207.34
2022-08-17T09:07:48.332Z,101201.03
2022-08-17T09:10:52.486Z,101210.28
2022-08-17T09:13:35.143Z,101210.84
2022-08-17T09:16:20.243Z,101211.09
2022-08-17T09:19:00.389Z,101226.31
2022-08-17T09:21:47.880Z,101238.56
2022-08-17T09:24:54.637Z,101278.34
2022-08-17T09:27:28.185Z,101320.06
2022-08-17T09:30:00.836Z,101343.38
2022-08-17T09:32:42.638Z,101326.25
2022-08-17T09:35:16.231Z,101327.75
2022-08-17T09:37:56.293Z,101319.53
2022-08-17T09:40:30.488Z,101271.69
2022-08-17T09:43:06.740Z,101223.84
2022-08-17T09:45:51.086Z,101196.03
2022-08-17T09:48:30.990Z,101187.00
2022-08-17T09:51:11.973Z,101190.25
2022-08-17T09:53:39.517Z,101180.78
2022-08-17T09:56:17.434Z,101155.81
2022-08-17T09:58:56.406Z,101163.47
2022-08-17T10:01:39.915Z,101173.63
2022-08-17T10:04:29.324Z,101178.13
2022-08-17T10:07:42.439Z,101197.91
2022-08-17T10:10:21.173Z,101197.84
2022-08-17T10:13:01.001Z,101196.59
2022-08-17T10:16:01.854Z,101196.22
2022-08-17T10:18:33.191Z,101190.22
2022-08-17T10:21:24.877Z,101197.47
2022-08-17T10:24:21.501Z,101203.41
2022-08-17T10:26:56.579Z,101202.53
2022-08-17T10:29:44.188Z,101208.53
2022-08-17T10:32:40.775Z,101210.59
2022-08-17T10:35:13.540Z,101214.75
2022-08-17T10:37:42.973Z,101209.41
2022-08-17T10:40:34.792Z,101214.03
2022-08-17T10:43:25.714Z,101214.81
2022-08-17T10:46:27.965Z,101224.81
2022-08-17T10:49:18.197Z,101220.59
2022-08-17T10:51:52.373Z,101221.31
2022-08-17T10:54:24.670Z,101230.81
2022-08-17T10:56:57.908Z,101232.28
2022-08-17T10:59:36.208Z,101233.53
2022-08-17T11:02:15.010Z,101229.75
2022-08-17T11:05:01.255Z,101231.28
2022-08-17T11:07:43.806Z,101231.13
2022-08-17T11:10:32.091Z,101242.59
2022-08-17T11:13:30.589Z,101271.94
2022-08-17T11:16:13.218Z,101282.53
2022-08-17T11:19:10.474Z,101300.00
2022-08-17T11:22:02.529Z,101311.06
2022-08-17T11:24:43.429Z,101315.88
2022-08-17T11:27:24.851Z,101320.53
2022-08-17T11:30:05.944Z,101326.56
2022-08-17T11:32:37.298Z,101326.16
2022-08-17T11:35:21.945Z,101315.81
2022-08-17T11:38:19.390Z,101305.66
2022-08-17T11:41:14.687Z,101287.28
2022-08-17T11:43:59.013Z,101294.53
2022-08-17T11:47:30.657Z,101291.47
2022-08-17T11:50:48.598Z,101294.56
2022-08-17T11:53:39.905Z,101295.13
2022-08-17T11:56:06.597Z,101290.53
2022-08-17T11:58:37.892Z,101294.56
2022-08-17T12:01:13.736Z,101303.94
2022-08-17T12:03:55.683Z,101316.75
2022-08-17T12:06:43.984Z,101302.69
2022-08-17T12:09:13.516Z,101298.22
2022-08-17T12:12:01.561Z,101293.63
2022-08-17T12:15:08.332Z,101289.59
2022-08-17T12:17:41.244Z,101286.41
2022-08-17T12:20:14.444Z,101278.31
2022-08-17T12:23:04.897Z,101283.88
2022-08-17T12:25:46.616Z,101287.34
2022-08-17T12:28:32.629Z,101287.63
2022-08-17T12:31:20.377Z,101286.66
2022-08-17T12:33:48.329Z,101284.84
2022-08-17T12:36:18.732Z,101278.00
2022-08-17T12:38:53.210Z,101274.38
2022-08-17T12:41:34.136Z,101275.91
2022-08-17T12:44:23.956Z,101276.91
2022-08-17T12:47:02.194Z,101277.19
2022-08-17T12:49:37.237Z,101280.94
2022-08-17T12:52:25.942Z,101268.41
2022-08-17T12:55:02.434Z,101260.75
2022-08-17T12:57:56.687Z,101253.63
2022-08-17T13:00:32.896Z,101254.75
2022-08-17T13:03:15.755Z,101264.78
2022-08-17T13:05:55.197Z,101275.94
2022-08-17T13:08:27.776Z,101287.78
2022-08-17T13:11:02.850Z,101283.31
2022-08-17T13:13:33.054Z,101288.19
2022-08-17T13:16:09.443Z,101294.03
2022-08-17T13:18:40.677Z,101292.25
2022-08-17T13:21:22.132Z,101288.63
2022-08-17T13:24:11.250Z,101288.63
2022-08-17T13:26:45.839Z,101286.09
2022-08-17T13:29:26.956Z,101290.72
2022-08-17T13:32:12.888Z,101285.41
2022-08-17T13:35:12.491Z,101274.94
2022-08-17T13:37:35.911Z,101276.63
2022-08-17T13:40:11.623Z,101273.81
2022-08-17T13:42:52.924Z,101274.66
2022-08-17T13:45:36.168Z,101270.06
2022-08-17T13:48:16.279Z,101265.31
2022-08-17T13:50:52.133Z,101265.47
2022-08-17T13:53:20.223Z,101273.28
2022-08-17T13:55:58.618Z,101266.44
2022-08-17T13:58:34.499Z,101269.63
2022-08-17T14:01:35.050Z,101258.91
2022-08-17T14:04:08.544Z,101261.13
2022-08-17T14:06:59.945Z,101250.53
2022-08-17T14:09:37.159Z,101246.88
2022-08-17T14:12:09.239Z,101245.66
2022-08-17T14:14:36.347Z,101241.84
2022-08-17T14:17:04.499Z,101248.00
2022-08-17T14:19:30.975Z,101238.63
2022-08-17T14:21:59.042Z,101230.94
2022-08-17T14:24:31.354Z,101233.34
2022-08-17T14:26:59.808Z,101232.47
2022-08-17T14:29:28.776Z,101230.63
2022-08-17T14:31:56.846Z,101225.03
2022-08-17T14:34:24.750Z,101224.03
2022-08-17T14:36:52.283Z,101221.94
2022-08-17T14:39:19.440Z,101217.16
2022-08-17T14:41:46.301Z,101215.91
2022-08-17T14:44:13.294Z,101221.44
2022-08-17T14:46:41.831Z,101217.53
2022-08-17T14:49:11.805Z,101206.31
2022-08-17T14:51:43.606Z,101216.31
2022-08-17T14:54:34.169Z,101217.19
2022-08-17T14:57:23.262Z,101204.50
2022-08-17T14:59:45.577Z,101209.81
2022-08-17T15:02:13.180Z,101197.38
2022-08-17T15:04:44.862Z,101216.25
2022-08-17T15:07:11.985Z,101207.44
2022-08-17T15:09:39.025Z,101210.94
2022-08-17T15:12:06.610Z,101206.75
2022-08-17T15:14:35.055Z,101205.22
2022-08-17T15:17:02.795Z,101204.69
2022-08-17T15:19:29.282Z,101205.97
2022-08-17T15:21:55.856Z,101202.09
2022-08-17T15:24:22.342Z,101201.25
2022-08-17T15:26:48.795Z,101206.13
2022-08-17T15:29:15.273Z,101206.25
2022-08-17T15:31:41.888Z,101207.97
2022-08-17T15:34:08.419Z,101208.91
2022-08-17T15:36:35.881Z,101216.88
2022-08-17T15:39:03.110Z,101208.91
2022-08-17T15:41:29.697Z,101218.94
2022-08-17T15:43:56.452Z,101216.53
2022-08-17T15:46:25.583Z,101222.63
2022-08-17T15:48:58.201Z,101218.63
2022-08-17T15:51:34.018Z,101223.59
2022-08-17T15:54:04.221Z,101219.66
2022-08-17T15:56:41.434Z,101209.44
2022-08-17T15:59:08.258Z,101207.00
2022-08-17T16:03:01.492Z,101205.84
2022-08-17T16:04:30.213Z,101207.38
2022-08-17T16:06:57.920Z,101213.38
2022-08-17T16:09:24.378Z,101218.69
2022-08-17T16:11:53.886Z,101216.84
2022-08-17T16:14:22.364Z,101217.25
2022-08-17T16:16:50.502Z,101212.78
2022-08-17T16:19:17.097Z,101217.84
2022-08-17T16:21:43.541Z,101220.81
2022-08-17T16:24:12.872Z,101215.28
2022-08-17T16:26:41.355Z,101217.22
2022-08-17T16:29:08.367Z,101220.19
2022-08-17T16:31:36.162Z,101220.19
2022-08-17T16:34:17.045Z,101226.31
2022-08-17T16:36:55.166Z,101220.66
2022-08-17T16:39:27.226Z,101225.13
2022-08-17T16:41:54.111Z,101222.78
2022-08-17T16:44:21.716Z,101219.28
2022-08-17T16:46:49.025Z,101218.97
2022-08-17T16:49:35.315Z,101223.91
2022-08-17T16:52:06.045Z,101221.81
2022-08-17T16:54:32.669Z,101226.28
2022-08-17T16:56:59.139Z,101239.56
2022-08-17T16:59:35.756Z,101237.34
2022-08-17T17:02:10.906Z,101234.16
2022-08-17T17:04:55.058Z,101235.28
2022-08-17T17:07:44.055Z,101227.34
2022-08-17T17:10:15.570Z,101227.03
2022-08-17T17:13:03.866Z,101218.38
2022-08-17T17:15:42.937Z,101222.56
2022-08-17T17:18:12.690Z,101224.09
2022-08-17T17:20:47.793Z,101227.88
2022-08-17T17:23:41.154Z,101221.44
2022-08-17T17:26:24.621Z,101223.09
2022-08-17T17:28:54.034Z,101235.66
2022-08-17T17:31:23.842Z,101233.16
2022-08-17T17:33:55.694Z,101244.78
2022-08-17T17:36:39.962Z,101236.13
2022-08-17T17:39:23.461Z,101241.88
2022-08-17T17:41:58.463Z,101236.72
2022-08-17T17:44:29.747Z,101244.97
2022-08-17T17:47:00.632Z,101244.28
2022-08-17T17:49:30.954Z,101247.25
2022-08-17T17:52:37.820Z,101248.38
2022-08-17T17:55:26.126Z,101246.53
2022-08-17T17:57:58.748Z,101250.31
2022-08-17T18:00:34.138Z,101253.13
2022-08-17T18:03:24.411Z,101244.47
2022-08-17T18:05:57.022Z,101254.53
2022-08-17T18:08:32.415Z,101252.03
2022-08-17T18:11:26.774Z,101252.03
2022-08-17T18:14:04.628Z,101253.16
2022-08-17T18:16:32.910Z,101257.09
2022-08-17T18:19:00.318Z,101262.69
2022-08-17T18:21:39.564Z,101265.78
2022-08-17T18:24:08.615Z,101278.34
2022-08-17T18:26:45.010Z,101275.00
2022-08-17T18:29:31.353Z,101283.53
2022-08-17T18:32:32.358Z,101286.31
2022-08-17T18:35:28.316Z,101284.13
2022-08-17T18:38:22.213Z,101286.91
2022-08-17T18:40:59.327Z,101296.94
2022-08-17T18:43:43.881Z,101298.19
2022-08-17T18:46:29.151Z,101292.34
2022-08-17T18:49:06.829Z,101287.59
2022-08-17T18:51:41.780Z,101290.81
2022-08-17T18:54:14.384Z,101289.44
2022-08-17T18:57:02.205Z,101283.44
2022-08-17T18:59:42.365Z,101283.44
2022-08-17T19:02:20.673Z,101281.38
2022-08-17T19:04:55.910Z,101282.06
2022-08-17T19:07:23.137Z,101287.50
2022-08-17T19:10:06.829Z,101291.81
2022-08-17T19:12:43.101Z,101292.09
2022-08-17T19:15:12.658Z,101293.09
2022-08-17T19:17:53.970Z,101298.38
2022-08-17T19:20:31.576Z,101302.13
2022-08-17T19:23:13.686Z,101309.13
2022-08-17T19:25:48.629Z,101320.25
2022-08-17T19:28:30.005Z,101332.22
2022-08-17T19:30:59.542Z,101336.69
2022-08-17T19:33:27.239Z,101343.81
2022-08-17T19:36:12.850Z,101348.13
2022-08-17T19:38:52.999Z,101354.41
2022-08-17T19:41:30.136Z,101350.06
2022-08-17T19:44:02.574Z,101355.22
2022-08-17T19:46:42.977Z,101362.63
2022-08-17T19:49:33.766Z,101361.06
2022-08-17T19:52:40.241Z,101367.34
2022-08-17T19:55:20.606Z,101369.16
2022-08-17T19:58:08.359Z,101366.63
2022-08-17T20:00:41.859Z,101370.94
2022-08-17T20:03:16.658Z,101352.28
2022-08-17T20:06:14.231Z,101355.06
2022-08-17T20:08:53.387Z,101357.88
2022-08-17T20:11:26.603Z,101354.38
2022-08-17T20:14:03.342Z,101357.31
2022-08-17T20:16:32.425Z,101364.25
2022-08-17T20:19:03.577Z,101351.16
2022-08-17T20:21:49.924Z,101347.69
2022-08-17T20:24:39.348Z,101339.88
2022-08-17T20:27:32.122Z,101341.81
2022-08-17T20:30:00.941Z,101334.13
2022-08-17T20:32:31.196Z,101333.16
2022-08-17T20:35:19.792Z,101335.09
2022-08-17T20:38:02.168Z,101329.94
2022-08-17T20:41:00.322Z,101328.66
2022-08-17T20:43:29.780Z,101321.25
2022-08-17T20:46:06.371Z,101320.00
2022-08-17T20:48:46.758Z,101334.63
2022-08-17T20:51:22.862Z,101338.25
2022-08-17T20:53:49.351Z,101341.16
2022-08-17T20:56:43.664Z,101344.06
2022-08-17T20:59:24.030Z,101345.03
2022-08-17T21:02:07.996Z,101337.38
2022-08-17T21:04:43.938Z,101340.41
2022-08-17T21:07:30.091Z,101336.63
2022-08-17T21:10:11.630Z,101344.13
2022-08-17T21:12:39.969Z,101348.56
2022-08-17T21:15:20.529Z,101354.13
2022-08-17T21:17:58.966Z,101355.91
2022-08-17T21:20:43.793Z,101352.97
2022-08-17T21:23:20.394Z,101351.56
2022-08-17T21:26:09.919Z,101368.13
2022-08-17T21:29:29.759Z,101362.28
2022-08-17T21:32:05.322Z,101371.69
2022-08-17T21:34:35.949Z,101368.91
2022-08-17T21:37:20.564Z,101369.63
2022-08-17T21:39:52.740Z,101373.22
2022-08-17T21:42:32.219Z,101374.09
2022-08-17T21:45:25.422Z,101377.69
2022-08-17T21:48:15.192Z,101377.81
2022-08-17T21:50:46.108Z,101380.84
2022-08-17T21:53:33.709Z,101382.75
2022-08-17T21:56:00.858Z,101386.63
2022-08-17T21:58:31.998Z,101395.50
2022-08-17T22:01:22.217Z,101394.09
2022-08-17T22:04:18.184Z,101387.13
2022-08-17T22:06:57.419Z,101386.16
2022-08-17T22:09:42.928Z,101384.34
2022-08-17T22:12:19.292Z,101394.22
2022-08-17T22:14:58.129Z,101397.13
2022-08-17T22:17:35.530Z,101396.41
2022-08-17T22:20:06.080Z,101394.59
2022-08-17T22:23:00.264Z,101391.97
2022-08-17T22:25:28.294Z,101387.91
2022-08-17T22:27:55.502Z,101388.16
2022-08-17T22:30:39.957Z,101380.38
2022-08-17T22:33:42.690Z,101373.78
2022-08-17T22:36:11.990Z,101381.84
2022-08-17T22:38:40.596Z,101386.66
2022-08-17T22:41:39.136Z,101397.72
2022-08-17T22:44:14.162Z,101395.59
2022-08-17T22:47:11.553Z,101394.75
2022-08-17T22:49:54.117Z,101391.28
2022-08-17T22:53:02.421Z,101391.41
2022-08-17T22:55:52.406Z,101399.59
2022-08-17T22:58:41.804Z,101406.06
2022-08-17T23:01:25.911Z,101406.22
2022-08-17T23:03:54.991Z,101400.94
2022-08-17T23:06:21.548Z,101397.69
2022-08-17T23:08:54.579Z,101408.50
2022-08-17T23:11:36.740Z,101403.59
2022-08-17T23:14:15.589Z,101408.16
2022-08-17T23:16:42.655Z,101411.88
2022-08-17T23:19:15.328Z,101409.50
2022-08-17T23:21:48.686Z,101412.13
2022-08-17T23:24:22.632Z,101407.81
2022-08-17T23:26:49.548Z,101402.78
2022-08-17T23:29:16.624Z,101410.13
2022-08-17T23:31:43.216Z,101415.53
2022-08-17T23:34:12.880Z,101417.44
2022-08-17T23:36:39.486Z,101423.06
2022-08-17T23:39:07.304Z,101426.06
2022-08-17T23:41:38.423Z,101423.56
2022-08-17T23:44:06.410Z,101417.19
2022-08-17T23:46:34.364Z,101415.50
2022-08-17T23:49:01.038Z,101414.66
2022-08-17T23:51:37.110Z,101411.28
2022-08-17T23:54:14.344Z,101398.09
2022-08-17T23:56:46.894Z,101393.78
2022-08-17T23:59:22.877Z,101398.38
